Abbeville, Louisiana
Current Conditions -  °F | °C
As of 5:15 AM on Thursday 18 Dec 2014 (Local Time) from KIYA Reporting Station
Overcast Overcast  
Wind Chill: 11°   Ceiling: 11000
Heat Index: 11°   Visibility: 10mi
Dew Point:   Wind: 5mph
Humidity: 80%   Direction: 90°E
Pressure: 30.11"   Gusts: NA
Location:  29.97°N, 92.13°W
Report Text: KIYA 181115Z AUTO 09004KT 10SM SCT060 OVC110 11/07 A3011 RMK AO2 T01050072 TSNO
Loading
Personal Weather Stations






























Interactive Weather Map New forecast layout! Learn more

10-Day Weather Forecast

Advertisements
Track Severe Weather on mobile